createdAt,value
2023-04-22T00:02:04.896Z,4.50
2023-04-22T00:04:34.227Z,5.63
2023-04-22T00:07:02.319Z,5.63
2023-04-22T00:09:30.068Z,7.35
2023-04-22T00:11:59.132Z,5.03
2023-04-22T00:14:26.868Z,4.28
2023-04-22T00:16:54.566Z,5.35
2023-04-22T00:19:22.555Z,5.28
2023-04-22T00:21:50.332Z,6.30
2023-04-22T00:24:18.218Z,4.05
2023-04-22T00:26:45.907Z,5.55
2023-04-22T00:29:15.000Z,6.20
2023-04-22T00:31:42.777Z,5.45
2023-04-22T00:34:10.560Z,4.95
2023-04-22T00:36:38.261Z,5.38
2023-04-22T00:39:06.496Z,6.63
2023-04-22T00:41:35.147Z,5.22
2023-04-22T00:44:03.530Z,5.90
2023-04-22T00:46:35.207Z,3.97
2023-04-22T00:49:03.682Z,4.90
2023-04-22T00:51:31.768Z,6.30
2023-04-22T00:54:01.789Z,5.75
2023-04-22T00:56:31.033Z,4.68
2023-04-22T00:58:59.245Z,4.63
2023-04-22T01:01:27.749Z,7.15
2023-04-22T01:03:57.829Z,4.53
2023-04-22T01:06:26.847Z,5.55
2023-04-22T01:08:55.220Z,6.43
2023-04-22T01:11:23.422Z,4.95
2023-04-22T01:13:51.503Z,4.30
2023-04-22T01:16:20.070Z,4.75
2023-04-22T01:18:47.782Z,4.75
2023-04-22T01:21:17.126Z,4.68
2023-04-22T01:23:46.439Z,4.63
2023-04-22T01:26:14.567Z,4.22
2023-04-22T01:28:42.495Z,5.88
2023-04-22T01:31:10.628Z,7.32
2023-04-22T01:33:38.670Z,3.88
2023-04-22T01:36:06.776Z,9.30
2023-04-22T01:38:35.581Z,4.60
2023-04-22T01:41:04.953Z,6.43
2023-04-22T01:43:33.376Z,4.22
2023-04-22T01:46:04.078Z,4.55
2023-04-22T01:48:31.918Z,4.20
2023-04-22T01:50:59.696Z,4.13
2023-04-22T01:53:27.928Z,5.57
2023-04-22T01:55:55.638Z,4.78
2023-04-22T01:58:24.720Z,3.83
2023-04-22T02:00:52.521Z,4.85
2023-04-22T02:03:20.425Z,6.45
2023-04-22T02:05:48.148Z,4.82
2023-04-22T02:08:15.834Z,5.88
2023-04-22T02:10:43.684Z,6.15
2023-04-22T02:13:11.416Z,5.30
2023-04-22T02:15:41.260Z,5.40
2023-04-22T02:18:10.174Z,5.07
2023-04-22T02:20:38.225Z,4.25
2023-04-22T02:23:06.535Z,4.20
2023-04-22T02:25:34.228Z,6.72
2023-04-22T02:28:01.989Z,5.13
2023-04-22T02:30:30.288Z,4.85
2023-04-22T02:32:59.399Z,4.20
2023-04-22T02:35:27.125Z,4.20
2023-04-22T02:37:55.034Z,4.38
2023-04-22T02:40:22.866Z,7.65
2023-04-22T02:42:50.815Z,6.07
2023-04-22T02:45:18.751Z,6.63
2023-04-22T02:47:46.539Z,4.90
2023-04-22T02:50:15.748Z,4.20
2023-04-22T02:52:43.450Z,4.05
2023-04-22T02:55:11.297Z,4.22
2023-04-22T02:57:39.025Z,4.65
2023-04-22T03:00:08.993Z,5.78
2023-04-22T03:02:36.941Z,3.83
2023-04-22T03:05:05.007Z,5.13
2023-04-22T03:07:34.052Z,4.45
2023-04-22T03:10:01.779Z,5.20
2023-04-22T03:12:29.483Z,4.85
2023-04-22T03:14:57.217Z,4.13
2023-04-22T03:17:25.954Z,4.00
2023-04-22T03:19:53.735Z,4.78
2023-04-22T03:22:21.445Z,5.50
2023-04-22T03:24:50.528Z,6.05
2023-04-22T03:27:18.244Z,4.00
2023-04-22T03:29:45.936Z,4.82
2023-04-22T03:32:13.758Z,3.65
2023-04-22T03:34:41.624Z,3.35
2023-04-22T03:37:10.529Z,4.15
2023-04-22T03:39:38.662Z,3.65
2023-04-22T03:42:08.168Z,3.80
2023-04-22T03:44:35.910Z,5.40
2023-04-22T03:47:03.663Z,3.85
2023-04-22T03:49:31.760Z,4.43
2023-04-22T03:51:59.472Z,4.57
2023-04-22T03:54:27.962Z,4.90
2023-04-22T03:56:55.680Z,4.32
2023-04-22T03:59:24.795Z,4.78
2023-04-22T04:01:53.638Z,5.50
2023-04-22T04:04:23.286Z,4.90
2023-04-22T04:06:52.218Z,4.90
2023-04-22T04:09:19.945Z,6.53
2023-04-22T04:11:47.782Z,4.97
2023-04-22T04:14:15.545Z,5.40
2023-04-22T04:16:45.159Z,7.13
2023-04-22T04:19:12.882Z,5.35
2023-04-22T04:21:40.606Z,6.13
2023-04-22T04:24:08.458Z,5.25
2023-04-22T04:26:36.165Z,5.18
2023-04-22T04:29:03.884Z,5.70
2023-04-22T04:31:31.747Z,5.57
2023-04-22T04:34:00.829Z,6.63
2023-04-22T04:36:29.278Z,3.95
2023-04-22T04:38:57.220Z,6.55
2023-04-22T04:41:27.036Z,5.22
2023-04-22T04:43:55.119Z,4.95
2023-04-22T04:46:23.537Z,4.63
2023-04-22T04:48:51.763Z,4.00
2023-04-22T04:51:20.892Z,5.43
2023-04-22T04:53:48.644Z,4.45
2023-04-22T04:56:16.835Z,4.15
2023-04-22T04:58:44.570Z,5.90
2023-04-22T05:01:12.334Z,4.88
2023-04-22T05:03:40.248Z,4.90
2023-04-22T05:06:08.677Z,4.47
2023-04-22T05:08:37.760Z,4.78
2023-04-22T05:11:05.558Z,8.80
2023-04-22T05:13:33.375Z,6.75
2023-04-22T05:16:01.196Z,4.72
2023-04-22T05:18:28.941Z,6.45
2023-04-22T05:20:58.808Z,4.95
2023-04-22T05:23:27.136Z,3.97
2023-04-22T05:25:56.258Z,5.03
2023-04-22T05:28:24.295Z,6.70
2023-04-22T05:30:52.007Z,7.13
2023-04-22T05:33:19.742Z,6.35
2023-04-22T05:35:47.518Z,4.95
2023-04-22T05:38:15.362Z,5.55
2023-04-22T05:40:43.013Z,5.32
2023-04-22T05:43:12.075Z,4.60
2023-04-22T05:45:39.832Z,5.00
2023-04-22T05:48:07.610Z,7.03
2023-04-22T05:50:35.446Z,8.73
2023-04-22T05:53:03.144Z,8.95
2023-04-22T05:55:30.899Z,5.15
2023-04-22T05:57:58.670Z,8.07
2023-04-22T06:00:27.747Z,5.38
2023-04-22T06:02:55.651Z,6.15
2023-04-22T06:05:23.603Z,6.35
2023-04-22T06:07:51.418Z,5.22
2023-04-22T06:10:19.128Z,4.80
2023-04-22T06:12:46.882Z,9.38
2023-04-22T06:15:14.546Z,5.43
2023-04-22T06:17:44.265Z,4.20
2023-04-22T06:20:13.490Z,4.60
2023-04-22T06:22:41.210Z,5.13
2023-04-22T06:25:09.674Z,4.22
2023-04-22T06:27:37.764Z,4.80
2023-04-22T06:30:05.972Z,4.65
2023-04-22T06:32:33.674Z,4.35
2023-04-22T06:35:02.772Z,5.10
2023-04-22T06:37:30.521Z,3.75
2023-04-22T06:39:58.294Z,4.80
2023-04-22T06:42:25.960Z,5.72
2023-04-22T06:44:53.649Z,4.70
2023-04-22T06:47:21.530Z,3.85
2023-04-22T06:49:50.281Z,4.85
2023-04-22T06:52:21.004Z,6.50
2023-04-22T06:54:49.618Z,4.50
2023-04-22T06:57:17.326Z,5.50
2023-04-22T06:59:46.829Z,4.43
2023-04-22T07:02:14.972Z,5.05
2023-04-22T07:04:42.789Z,5.00
2023-04-22T07:07:10.744Z,4.38
2023-04-22T07:09:40.414Z,4.00
2023-04-22T07:12:08.429Z,5.65
2023-04-22T07:14:36.185Z,4.78
2023-04-22T07:17:03.941Z,3.30
2023-04-22T07:19:33.275Z,3.92
2023-04-22T07:22:03.376Z,4.13
2023-04-22T07:24:31.208Z,4.20
2023-04-22T07:27:01.499Z,6.25
2023-04-22T07:29:29.287Z,4.80
2023-04-22T07:31:57.816Z,3.60
2023-04-22T07:34:25.539Z,3.53
2023-04-22T07:36:53.644Z,4.68
2023-04-22T07:39:21.489Z,5.25
2023-04-22T07:41:49.204Z,4.97
2023-04-22T07:44:18.500Z,4.57
2023-04-22T07:46:46.211Z,6.82
2023-04-22T07:49:14.630Z,4.82
2023-04-22T07:51:42.523Z,4.13
2023-04-22T07:54:10.311Z,3.25
2023-04-22T07:56:38.070Z,6.80
2023-04-22T07:59:05.889Z,4.28
2023-04-22T08:01:35.025Z,4.75
2023-04-22T08:04:03.270Z,4.57
2023-04-22T08:06:31.928Z,4.35
2023-04-22T08:08:59.666Z,4.88
2023-04-22T08:11:27.558Z,5.50
2023-04-22T08:13:55.396Z,6.35
2023-04-22T08:16:23.345Z,3.70
2023-04-22T08:18:53.185Z,4.93
2023-04-22T08:21:20.952Z,5.78
2023-04-22T08:23:48.650Z,5.35
2023-04-22T08:26:16.943Z,8.13
2023-04-22T08:28:44.774Z,7.63
2023-04-22T08:31:13.137Z,3.65
2023-04-22T08:33:41.410Z,4.75
2023-04-22T08:36:11.185Z,4.93
2023-04-22T08:38:39.004Z,4.32
2023-04-22T08:41:07.577Z,5.72
2023-04-22T08:43:35.507Z,5.55
2023-04-22T08:46:03.310Z,6.05
2023-04-22T08:48:31.076Z,6.22
2023-04-22T08:50:59.432Z,5.78
2023-04-22T08:53:28.531Z,6.35
2023-04-22T08:55:57.406Z,6.60
2023-04-22T08:58:25.397Z,4.70
2023-04-22T09:00:53.847Z,9.48
2023-04-22T09:03:22.367Z,6.45
2023-04-22T09:05:52.677Z,5.00
2023-04-22T09:08:20.541Z,4.47
2023-04-22T09:10:50.052Z,5.70
2023-04-22T09:13:18.798Z,4.90
2023-04-22T09:15:46.543Z,5.15
2023-04-22T09:18:18.373Z,6.18
2023-04-22T09:20:48.640Z,4.78
2023-04-22T09:23:16.880Z,5.82
2023-04-22T09:25:47.370Z,7.07
2023-04-22T09:28:20.357Z,4.82
2023-04-22T09:30:48.148Z,4.07
2023-04-22T09:33:17.380Z,4.15
2023-04-22T09:35:45.330Z,5.13
2023-04-22T09:38:13.812Z,5.60
2023-04-22T09:40:44.753Z,4.32
2023-04-22T09:43:12.821Z,5.45
2023-04-22T09:45:44.056Z,6.53
2023-04-22T09:48:14.313Z,5.65
2023-04-22T09:50:45.086Z,6.13
2023-04-22T09:53:14.910Z,4.72
2023-04-22T09:55:44.745Z,4.00
2023-04-22T09:58:14.101Z,6.20
2023-04-22T10:00:47.148Z,4.22
2023-04-22T10:03:15.296Z,3.85
2023-04-22T10:05:45.552Z,5.40
2023-04-22T10:08:14.981Z,4.80
2023-04-22T10:10:43.275Z,4.38
2023-04-22T10:13:11.074Z,5.93
2023-04-22T10:15:41.393Z,6.57
2023-04-22T10:18:13.098Z,3.65
2023-04-22T10:20:43.196Z,5.18
2023-04-22T10:23:15.339Z,6.25
2023-04-22T10:25:43.152Z,4.60
2023-04-22T10:28:12.166Z,5.32
2023-04-22T10:30:40.891Z,7.50
2023-04-22T10:33:40.320Z,6.15
2023-04-22T10:36:10.411Z,4.05
2023-04-22T10:38:39.117Z,3.38
2023-04-22T10:41:07.118Z,4.85
2023-04-22T10:43:45.516Z,4.65
2023-04-22T10:46:47.026Z,5.20
2023-04-22T10:49:21.578Z,6.07
2023-04-22T10:51:51.236Z,7.13
2023-04-22T10:54:56.520Z,4.88
2023-04-22T10:57:24.362Z,5.57
2023-04-22T10:59:54.434Z,3.55
2023-04-22T11:02:23.735Z,4.00
2023-04-22T11:04:54.392Z,6.13
2023-04-22T11:07:34.223Z,4.20
2023-04-22T11:10:09.725Z,3.72
2023-04-22T11:12:44.878Z,3.85
2023-04-22T11:15:16.105Z,6.30
2023-04-22T11:17:45.165Z,3.78
2023-04-22T11:20:17.344Z,4.63
2023-04-22T11:22:47.337Z,3.70
2023-04-22T11:25:15.427Z,3.78
2023-04-22T11:27:44.105Z,5.10
2023-04-22T11:30:15.103Z,10.10
2023-04-22T11:32:44.639Z,4.20
2023-04-22T11:35:15.433Z,7.65
2023-04-22T11:37:44.526Z,5.15
2023-04-22T11:40:28.951Z,7.78
2023-04-22T11:42:59.086Z,6.55
2023-04-22T11:45:27.553Z,4.70
2023-04-22T11:47:55.560Z,3.78
2023-04-22T11:50:26.730Z,6.65
2023-04-22T11:52:55.911Z,6.00
2023-04-22T11:55:27.095Z,5.47
2023-04-22T11:57:57.234Z,5.70
2023-04-22T12:00:26.451Z,4.72
2023-04-22T12:03:02.323Z,5.03
2023-04-22T12:05:36.090Z,13.15
2023-04-22T12:08:05.185Z,9.02
2023-04-22T12:10:32.883Z,6.82
2023-04-22T12:13:01.860Z,6.35
2023-04-22T12:15:39.641Z,8.82
2023-04-22T12:18:08.123Z,5.03
2023-04-22T12:20:38.092Z,8.30
2023-04-22T12:23:05.854Z,5.35
2023-04-22T12:25:34.667Z,6.63
2023-04-22T12:28:02.458Z,7.03
2023-04-22T12:30:30.152Z,7.18
2023-04-22T12:32:58.287Z,6.50
2023-04-22T12:35:27.033Z,7.13
2023-04-22T12:37:56.109Z,5.07
2023-04-22T12:40:23.965Z,6.50
2023-04-22T12:42:51.672Z,6.60
2023-04-22T12:45:19.363Z,7.50
2023-04-22T12:47:47.161Z,6.30
2023-04-22T12:50:14.910Z,7.25
2023-04-22T12:52:42.668Z,7.20
2023-04-22T12:55:11.931Z,7.40
2023-04-22T12:57:39.725Z,7.40
2023-04-22T13:00:14.141Z,7.82
2023-04-22T13:02:43.657Z,6.20
2023-04-22T13:05:11.821Z,9.00
2023-04-22T13:07:40.644Z,7.10
2023-04-22T13:10:11.814Z,6.38
2023-04-22T13:12:39.933Z,9.02
2023-04-22T13:15:08.934Z,9.15
2023-04-22T13:17:37.208Z,7.90
2023-04-22T13:20:09.513Z,4.93
2023-04-22T13:22:37.478Z,6.30
2023-04-22T13:25:06.446Z,7.30
2023-04-22T13:27:36.181Z,6.93
2023-04-22T13:30:04.587Z,5.60
2023-04-22T13:32:32.416Z,6.57
2023-04-22T13:35:02.684Z,5.72
2023-04-22T13:37:30.828Z,9.13
2023-04-22T13:39:58.545Z,5.63
2023-04-22T13:42:26.582Z,6.68
2023-04-22T13:44:55.677Z,6.95
2023-04-22T13:47:23.739Z,9.23
2023-04-22T13:49:51.635Z,7.85
2023-04-22T13:52:19.389Z,4.88
2023-04-22T13:54:47.133Z,5.63
2023-04-22T13:57:14.904Z,7.38
2023-04-22T13:59:43.810Z,7.00
2023-04-22T14:02:12.913Z,6.93
2023-04-22T14:04:41.158Z,5.07
2023-04-22T14:07:08.874Z,7.50
2023-04-22T14:09:36.593Z,11.05
2023-04-22T14:12:04.882Z,7.22
2023-04-22T14:14:32.636Z,8.43
2023-04-22T14:17:00.608Z,8.23
2023-04-22T14:19:30.312Z,6.38
2023-04-22T14:21:58.377Z,8.05
2023-04-22T14:24:26.758Z,6.97
2023-04-22T14:26:55.718Z,5.75
2023-04-22T14:29:23.480Z,5.78
2023-04-22T14:31:51.202Z,5.22
2023-04-22T14:34:18.982Z,3.95
2023-04-22T14:36:48.149Z,6.65
2023-04-22T14:39:15.972Z,5.40
2023-04-22T14:41:43.787Z,4.40
2023-04-22T14:44:11.564Z,5.03
2023-04-22T14:46:39.361Z,4.88
2023-04-22T14:49:07.185Z,4.15
2023-04-22T14:51:36.480Z,3.63
2023-04-22T14:54:06.110Z,5.70
2023-04-22T14:56:33.833Z,3.08
2023-04-22T14:59:01.562Z,3.83
2023-04-22T15:01:29.451Z,5.55
2023-04-22T15:03:57.291Z,4.03
2023-04-22T15:06:27.563Z,3.38
2023-04-22T15:08:55.926Z,4.82
2023-04-22T15:11:25.040Z,4.40
2023-04-22T15:13:53.210Z,8.15
2023-04-22T15:16:21.030Z,4.93
2023-04-22T15:18:49.052Z,4.15
2023-04-22T15:21:16.826Z,4.45
2023-04-22T15:23:44.564Z,5.47
2023-04-22T15:26:12.276Z,5.13
2023-04-22T15:28:41.360Z,5.22
2023-04-22T15:31:09.111Z,3.53
2023-04-22T15:33:38.787Z,5.40
2023-04-22T15:36:09.255Z,3.38
2023-04-22T15:38:38.034Z,2.92
2023-04-22T15:41:06.022Z,6.18
2023-04-22T15:43:33.939Z,2.50
2023-04-22T15:46:03.608Z,4.07
2023-04-22T15:48:31.352Z,3.13
2023-04-22T15:50:59.141Z,3.03
2023-04-22T15:53:26.922Z,2.95
2023-04-22T15:55:54.682Z,2.88
2023-04-22T15:58:22.420Z,3.22
2023-04-22T16:00:50.195Z,3.63
2023-04-22T16:03:19.389Z,4.88
2023-04-22T16:05:47.171Z,2.95
2023-04-22T16:08:14.936Z,2.45
2023-04-22T16:10:43.093Z,4.70
2023-04-22T16:13:11.620Z,4.25
2023-04-22T16:15:39.382Z,3.50
2023-04-22T16:18:07.322Z,2.70
2023-04-22T16:20:36.435Z,2.65
2023-04-22T16:23:04.137Z,3.40
2023-04-22T16:25:31.828Z,3.35
2023-04-22T16:27:59.631Z,4.60
2023-04-22T16:30:27.302Z,4.82
2023-04-22T16:32:55.200Z,5.30
2023-04-22T16:35:23.053Z,5.18
2023-04-22T16:37:52.103Z,5.05
2023-04-22T16:40:19.873Z,5.45
2023-04-22T16:42:47.628Z,6.15
2023-04-22T16:45:15.435Z,7.93
2023-04-22T16:47:43.218Z,6.90
2023-04-22T16:50:12.437Z,5.53
2023-04-22T16:52:40.343Z,7.20
2023-04-22T16:55:10.093Z,7.70
2023-04-22T16:57:37.889Z,6.70
2023-04-22T17:00:07.166Z,7.65
2023-04-22T17:02:35.310Z,7.50
2023-04-22T17:05:04.438Z,8.75
2023-04-22T17:07:32.284Z,6.55
2023-04-22T17:10:00.114Z,8.65
2023-04-22T17:12:29.594Z,7.63
2023-04-22T17:14:57.261Z,8.18
2023-04-22T17:17:25.035Z,8.55
2023-04-22T17:19:52.732Z,9.70
2023-04-22T17:22:20.571Z,9.20
2023-04-22T17:24:48.345Z,9.05
2023-04-22T17:27:16.333Z,9.02
2023-04-22T17:29:46.498Z,9.13
2023-04-22T17:32:14.222Z,8.43
2023-04-22T17:34:42.228Z,8.68
2023-04-22T17:37:10.135Z,9.40
2023-04-22T17:39:39.794Z,11.23
2023-04-22T17:42:07.659Z,10.65
2023-04-22T17:44:35.430Z,9.55
2023-04-22T17:47:05.957Z,8.95
2023-04-22T17:49:34.986Z,9.82
2023-04-22T17:52:02.718Z,10.40
2023-04-22T17:54:30.437Z,11.10
2023-04-22T17:56:58.157Z,10.23
2023-04-22T17:59:26.027Z,11.10
2023-04-22T18:01:53.784Z,11.18
2023-04-22T18:04:22.959Z,14.50
2023-04-22T18:06:50.733Z,13.25
2023-04-22T18:09:18.425Z,12.35
2023-04-22T18:11:46.165Z,12.20
2023-04-22T18:14:13.865Z,11.60
2023-04-22T18:16:41.656Z,11.52
2023-04-22T18:19:09.365Z,10.55
2023-04-22T18:21:41.639Z,13.40
2023-04-22T18:24:14.704Z,12.05
2023-04-22T18:26:44.104Z,14.70
2023-04-22T18:29:11.814Z,16.27
2023-04-22T18:31:39.647Z,16.42
2023-04-22T18:34:08.138Z,21.08
2023-04-22T18:36:35.915Z,21.85
2023-04-22T18:39:06.169Z,18.40
2023-04-22T18:41:34.137Z,20.05
2023-04-22T18:44:01.903Z,18.23
2023-04-22T18:46:29.805Z,18.20
2023-04-22T18:48:57.730Z,19.70
2023-04-22T18:51:25.686Z,23.58
2023-04-22T18:53:53.420Z,22.88
2023-04-22T18:56:22.879Z,23.02
2023-04-22T18:58:50.671Z,22.45
2023-04-22T19:01:18.508Z,24.02
2023-04-22T19:03:46.853Z,24.48
2023-04-22T19:06:14.644Z,25.27
2023-04-22T19:08:42.458Z,26.13
2023-04-22T19:11:10.233Z,26.88
2023-04-22T19:13:39.308Z,28.13
2023-04-22T19:16:07.425Z,28.08
2023-04-22T19:18:35.173Z,26.83
2023-04-22T19:21:03.463Z,27.08
2023-04-22T19:23:31.536Z,27.92
2023-04-22T19:25:59.247Z,29.58
2023-04-22T19:28:26.936Z,26.48
2023-04-22T19:30:56.292Z,28.25
2023-04-22T19:33:24.020Z,30.00
2023-04-22T19:35:51.755Z,27.42
2023-04-22T19:38:22.247Z,27.73
2023-04-22T19:40:50.041Z,28.98
2023-04-22T19:43:19.134Z,30.75
2023-04-22T19:45:47.073Z,30.45
2023-04-22T19:48:17.050Z,28.48
2023-04-22T19:50:44.915Z,28.05
2023-04-22T19:53:12.862Z,32.20
2023-04-22T19:55:41.302Z,30.55
2023-04-22T19:58:10.298Z,30.60
2023-04-22T20:00:38.900Z,31.60
2023-04-22T20:03:08.229Z,30.98
2023-04-22T20:05:38.196Z,31.33
2023-04-22T20:08:09.040Z,34.33
2023-04-22T20:10:37.870Z,32.33
2023-04-22T20:13:05.853Z,32.67
2023-04-22T20:15:34.073Z,36.72
2023-04-22T20:18:02.026Z,32.45
2023-04-22T20:20:30.760Z,33.55
2023-04-22T20:23:02.441Z,34.28
2023-04-22T20:25:31.147Z,32.83
2023-04-22T20:27:59.581Z,39.50
2023-04-22T20:30:27.944Z,34.58
2023-04-22T20:32:55.826Z,37.45
2023-04-22T20:35:24.493Z,38.85
2023-04-22T20:37:57.982Z,38.80
2023-04-22T20:40:28.920Z,38.17
2023-04-22T20:42:58.516Z,36.58
2023-04-22T20:45:27.354Z,38.53
2023-04-22T20:47:56.195Z,39.67
2023-04-22T20:50:24.601Z,35.35
2023-04-22T20:52:53.293Z,36.17
2023-04-22T20:55:21.752Z,36.88
2023-04-22T20:57:50.900Z,39.80
2023-04-22T21:00:19.474Z,42.25
2023-04-22T21:02:49.402Z,43.88
2023-04-22T21:05:17.922Z,39.67
2023-04-22T21:07:48.262Z,44.78
2023-04-22T21:10:16.766Z,42.45
2023-04-22T21:12:44.998Z,45.08
2023-04-22T21:15:15.132Z,42.65
2023-04-22T21:17:51.632Z,44.53
2023-04-22T21:20:20.211Z,42.78
2023-04-22T21:22:48.306Z,44.83
2023-04-22T21:25:21.366Z,44.78
2023-04-22T21:27:49.804Z,41.10
2023-04-22T21:30:19.863Z,43.13
2023-04-22T21:32:47.648Z,45.20
2023-04-22T21:35:15.440Z,44.63
2023-04-22T21:37:43.233Z,43.38
2023-04-22T21:40:13.816Z,46.63
2023-04-22T21:42:41.681Z,44.30
2023-04-22T21:45:09.952Z,44.25
2023-04-22T21:47:39.057Z,44.10
2023-04-22T21:50:07.908Z,41.35
2023-04-22T21:52:35.801Z,44.65
2023-04-22T21:55:03.866Z,44.85
2023-04-22T21:57:31.771Z,43.38
2023-04-22T21:59:59.603Z,45.42
2023-04-22T22:02:27.398Z,42.00
2023-04-22T22:04:56.523Z,42.15
2023-04-22T22:07:24.348Z,43.80
2023-04-22T22:09:52.865Z,40.70
2023-04-22T22:12:20.561Z,41.53
2023-04-22T22:14:48.227Z,40.78
2023-04-22T22:17:17.403Z,38.30
2023-04-22T22:19:45.387Z,43.83
2023-04-22T22:22:14.452Z,39.67
2023-04-22T22:24:42.537Z,37.47
2023-04-22T22:27:10.715Z,39.97
2023-04-22T22:29:40.789Z,41.42
2023-04-22T22:32:08.993Z,40.08
2023-04-22T22:34:36.838Z,38.38
2023-04-22T22:37:05.228Z,36.10
2023-04-22T22:39:34.374Z,34.97
2023-04-22T22:42:02.120Z,35.13
2023-04-22T22:44:29.804Z,34.33
2023-04-22T22:46:57.841Z,35.20
2023-04-22T22:49:25.770Z,36.28
2023-04-22T22:51:53.522Z,33.08
2023-04-22T22:54:21.317Z,32.42
2023-04-22T22:56:50.490Z,36.15
2023-04-22T22:59:18.236Z,33.10
2023-04-22T23:01:46.036Z,31.25
2023-04-22T23:04:15.555Z,30.75
2023-04-22T23:06:43.570Z,28.77
2023-04-22T23:09:11.544Z,30.17
2023-04-22T23:11:39.297Z,27.00
2023-04-22T23:14:09.632Z,27.17
2023-04-22T23:16:38.173Z,25.15
2023-04-22T23:19:07.351Z,24.77
2023-04-22T23:21:36.191Z,26.92
2023-04-22T23:24:04.514Z,28.85
2023-04-22T23:26:32.714Z,23.50
2023-04-22T23:29:00.694Z,23.58
2023-04-22T23:31:31.289Z,24.02
2023-04-22T23:34:02.635Z,28.48
2023-04-22T23:36:32.901Z,23.83
2023-04-22T23:39:00.786Z,23.27
2023-04-22T23:41:28.805Z,21.30
2023-04-22T23:43:56.504Z,20.70
2023-04-22T23:46:24.296Z,22.58
2023-04-22T23:48:53.558Z,20.17
2023-04-22T23:51:21.483Z,23.23
2023-04-22T23:53:49.268Z,21.25
2023-04-22T23:56:20.937Z,21.17
2023-04-22T23:58:49.480Z,19.75
